| time (UTC) | temp F | wind direction | speed knots | gust knots | rain 1hr in | rain 24hr in | rain mn in | humidity % | barometer mb |
| 20260506044556 | 49 | 95 | 1.7 | 3.5 | 0.00 | 0.00 | 0.00 | 74 | 1018.7 |
| 20260506044052 | 49 | 98 | 2.6 | 3.5 | 0.00 | 0.00 | 0.00 | 74 | 1018.7 |
| 20260506043549 | 49 | 123 | 3.5 | 3.5 | 0.00 | 0.00 | 0.00 | 74 | 1018.6 |
| 20260506043047 | 50 | 116 | 3.5 | 4.3 | 0.00 | 0.00 | 0.00 | 72 | 1018.4 |
| 20260506042546 | 50 | 35 | 0.9 | 5.2 | 0.00 | 0.00 | 0.00 | 71 | 1018.4 |
| 20260506042044 | 50 | 35 | 3.5 | 5.2 | 0.00 | 0.00 | 0.00 | 69 | 1018.3 |
| 20260506041542 | 50 | 356 | 5.2 | 8.7 | 0.00 | 0.00 | 0.00 | 73 | 1018.3 |
| 20260506041038 | 51 | 35 | 2.6 | 5.2 | 0.00 | 0.00 | 0.00 | 70 | 1018.1 |
| 20260506040536 | 51 | 358 | 3.5 | 4.3 | 0.00 | 0.00 | 0.00 | 72 | 1018.2 |
| 20260506040032 | 51 | 37 | 7.0 | 9.6 | 0.00 | 0.00 | 0.00 | 70 | 1018.1 |
| 20260506035529 | 51 | 329 | 7.0 | 8.7 | 0.00 | 0.00 | 0.00 | 70 | 1018.1 |
| 20260506035026 | 52 | 16 | 3.5 | 5.2 | 0.00 | 0.00 | 0.00 | 69 | 1018.0 |
| 20260506034524 | 52 | 27 | 2.6 | 4.3 | 0.00 | 0.00 | 0.00 | 70 | 1017.8 |
| 20260506034020 | 52 | 20 | 2.6 | 6.1 | 0.00 | 0.00 | 0.00 | 69 | 1018.1 |
| 20260506033518 | 53 | 352 | 5.2 | 7.8 | 0.00 | 0.00 | 0.00 | 68 | 1017.8 |
| 20260506033015 | 53 | 299 | 6.1 | 7.0 | 0.00 | 0.00 | 0.00 | 66 | 1017.7 |
| 20260506032512 | 53 | 321 | 7.8 | 10.4 | 0.00 | 0.00 | 0.00 | 67 | 1017.7 |
| 20260506032008 | 54 | 221 | 1.7 | 7.8 | 0.00 | 0.00 | 0.00 | 68 | 1017.6 |
| 20260506031506 | 54 | 0 | 2.6 | 5.2 | 0.00 | 0.00 | 0.00 | 67 | 1017.4 |
| 20260506031003 | 55 | 29 | 5.2 | 8.7 | 0.00 | 0.00 | 0.00 | 67 | 1017.4 |
| 20260506030501 | 55 | 6 | 5.2 | 7.0 | 0.00 | 0.00 | 0.00 | 67 | 1017.5 |
| 20260506025958 | 55 | 246 | 2.6 | 6.1 | 0.00 | 0.00 | 0.00 | 65 | 1017.5 |
| 20260506025454 | 55 | 50 | 3.5 | 7.8 | 0.00 | 0.00 | 0.00 | 68 | 1017.3 |
| 20260506024951 | 55 | 359 | 4.3 | 8.7 | 0.00 | 0.00 | 0.00 | 65 | 1017.3 |
| 20260506024448 | 55 | 343 | 3.5 | 7.8 | 0.00 | 0.00 | 0.00 | 66 | 1017.2 |
| 20260506023944 | 55 | 331 | 1.7 | 8.7 | 0.00 | 0.00 | 0.00 | 65 | 1017.2 |
| 20260506023441 | 55 | 359 | 4.3 | 7.8 | 0.00 | 0.00 | 0.00 | 67 | 1017.2 |
| 20260506022937 | 55 | 21 | 4.3 | 10.4 | 0.00 | 0.00 | 0.00 | 66 | 1017.1 |
| 20260506022435 | 55 | 312 | 8.7 | 10.4 | 0.00 | 0.00 | 0.00 | 65 | 1017.0 |
| 20260506021933 | 56 | 4 | 7.8 | 11.3 | 0.00 | 0.00 | 0.00 | 62 | 1016.9 |
| 20260506021430 | 57 | 347 | 3.5 | 8.7 | 0.00 | 0.00 | 0.00 | 62 | 1016.9 |
| 20260506020927 | 58 | 24 | 5.2 | 7.0 | 0.00 | 0.00 | 0.00 | 60 | 1016.8 |
| 20260506020425 | 58 | 18 | 2.6 | 5.2 | 0.00 | 0.00 | 0.00 | 60 | 1016.8 |
| 20260506015922 | 58 | 327 | 3.5 | 7.8 | 0.00 | 0.00 | 0.00 | 59 | 1016.6 |
| 20260506015419 | 59 | 337 | 1.7 | 5.2 | 0.00 | 0.00 | 0.00 | 57 | 1016.4 |
| 20260506014916 | 59 | 20 | 2.6 | 4.3 | 0.00 | 0.00 | 0.00 | 58 | 1016.5 |
| 20260506014413 | 59 | 15 | 5.2 | 8.7 | 0.00 | 0.00 | 0.00 | 56 | 1016.5 |
| 20260506013909 | 59 | 34 | 3.5 | 7.8 | 0.00 | 0.00 | 0.00 | 58 | 1016.5 |
| 20260506013408 | 59 | 56 | 7.0 | 8.7 | 0.00 | 0.00 | 0.00 | 55 | 1016.2 |
| 20260506012903 | 59 | 348 | 3.5 | 5.2 | 0.00 | 0.00 | 0.00 | 55 | 1016.6 |
| 20260506012400 | 58 | 332 | 1.7 | 5.2 | 0.00 | 0.00 | 0.00 | 60 | 1016.4 |
| 20260506011857 | 58 | 289 | 3.5 | 5.2 | 0.00 | 0.00 | 0.00 | 53 | 1016.5 |
| 20260506011354 | 58 | 319 | 5.2 | 7.0 | 0.00 | 0.00 | 0.00 | 60 | 1016.5 |
| 20260506010851 | 58 | 354 | 6.1 | 8.7 | 0.00 | 0.00 | 0.00 | 61 | 1016.5 |
| 20260506010350 | 58 | 281 | 2.6 | 7.8 | 0.00 | 0.00 | 0.00 | 58 | 1016.4 |
| 20260506005846 | 58 | 316 | 4.3 | 7.0 | 0.00 | 0.00 | 0.00 | 61 | 1016.4 |
| 20260506005343 | 59 | 333 | 6.1 | 9.6 | 0.00 | 0.00 | 0.00 | 58 | 1016.3 |
| 20260506004838 | 61 | 7 | 3.5 | 5.2 | 0.00 | 0.00 | 0.00 | 54 | 1016.3 |
| 20260506004337 | 62 | 36 | 3.5 | 3.5 | 0.00 | 0.00 | 0.00 | 54 | 1016.2 |
| 20260506003833 | 63 | 32 | 5.2 | 5.2 | 0.00 | 0.00 | 0.00 | 55 | 1016.1 |
| 20260506003329 | 63 | 107 | 2.6 | 4.3 | 0.00 | 0.00 | 0.00 | 49 | 1016.1 |
| 20260506002825 | 62 | 104 | 3.5 | 6.1 | 0.00 | 0.00 | 0.00 | 51 | 1015.9 |
| 20260506002322 | 63 | 103 | 5.2 | 9.6 | 0.00 | 0.00 | 0.00 | 50 | 1016.0 |
| 20260506001818 | 64 | 95 | 2.6 | 8.7 | 0.00 | 0.00 | 0.00 | 50 | 1016.0 |
| 20260506001315 | 64 | 140 | 3.5 | 7.8 | 0.00 | 0.00 | 0.00 | 51 | 1015.9 |
| 20260506000812 | 64 | 53 | 1.7 | 5.2 | 0.00 | 0.00 | 0.00 | 51 | 1015.8 |
| 20260506000310 | 63 | 57 | 1.7 | 3.5 | 0.00 | 0.00 | 0.00 | 51 | 1015.8 |
| 20260505235806 | 62 | 58 | 2.6 | 5.2 | 0.00 | 0.00 | 0.00 | 53 | 1015.8 |
| 20260505235305 | 62 | 38 | 2.6 | 5.2 | 0.00 | 0.00 | 0.00 | 56 | 1015.9 |
| 20260505234800 | 60 | 316 | 0.0 | 3.5 | 0.00 | 0.00 | 0.00 | 63 | 1015.9 |
| 20260505234258 | 60 | 7 | 2.6 | 4.3 | 0.00 | 0.00 | 0.00 | 63 | 1016.0 |
| 20260505233755 | 62 | 266 | 0.9 | 4.3 | 0.00 | 0.00 | 0.00 | 54 | 1015.8 |
| 20260505233253 | 63 | 4 | 2.6 | 10.4 | 0.00 | 0.00 | 0.00 | 59 | 1015.6 |
| 20260505232750 | 64 | 22 | 1.7 | 6.1 | 0.00 | 0.00 | 0.00 | 57 | 1015.6 |
| 20260505232247 | 64 | 52 | 2.6 | 7.8 | 0.00 | 0.00 | 0.00 | 55 | 1015.4 |
| 20260505231743 | 65 | 32 | 4.3 | 7.0 | 0.00 | 0.00 | 0.00 | 54 | 1015.4 |
| 20260505231242 | 65 | 96 | 3.5 | 5.2 | 0.00 | 0.00 | 0.00 | 50 | 1015.5 |
| 20260505230740 | 65 | 83 | 1.7 | 5.2 | 0.00 | 0.00 | 0.00 | 51 | 1015.7 |
| 20260505230237 | 64 | 54 | 1.7 | 7.0 | 0.00 | 0.00 | 0.00 | 51 | 1015.6 |
| 20260505225733 | 65 | 257 | 0.0 | 5.2 | 0.00 | 0.00 | 0.00 | 52 | 1015.3 |
| 20260505225231 | 65 | 26 | 2.6 | 6.1 | 0.00 | 0.00 | 0.00 | 53 | 1015.6 |
| 20260505224725 | 65 | 36 | 3.5 | 6.1 | 0.00 | 0.00 | 0.00 | 53 | 1015.5 |
| 20260505224224 | 65 | 72 | 4.3 | 7.0 | 0.00 | 0.00 | 0.00 | 55 | 1015.5 |
| 20260505223721 | 65 | 36 | 1.7 | 3.5 | 0.00 | 0.00 | 0.00 | 52 | 1015.3 |
| 20260505223217 | 64 | 154 | 0.9 | 4.3 | 0.00 | 0.00 | 0.00 | 51 | 1015.5 |
| 20260505222713 | 65 | 120 | 1.7 | 5.2 | 0.00 | 0.00 | 0.00 | 58 | 1015.5 |
| 20260505222209 | 65 | 33 | 0.9 | 4.3 | 0.00 | 0.00 | 0.00 | 51 | 1015.6 |
| 20260505221707 | 65 | 85 | 0.0 | 6.1 | 0.00 | 0.00 | 0.00 | 53 | 1015.4 |
| 20260505221203 | 65 | 103 | 5.2 | 8.7 | 0.00 | 0.00 | 0.00 | 50 | 1015.4 |
| 20260505220700 | 65 | 21 | 3.5 | 5.2 | 0.00 | 0.00 | 0.00 | 54 | 1015.3 |
| 20260505220158 | 65 | 49 | 3.5 | 7.0 | 0.00 | 0.00 | 0.00 | 50 | 1015.3 |
| 20260505215655 | 64 | 114 | 1.7 | 10.4 | 0.00 | 0.00 | 0.00 | 52 | 1015.4 |
| 20260505215153 | 64 | 119 | 7.0 | 7.8 | 0.00 | 0.00 | 0.00 | 52 | 1015.3 |
| 20260505214651 | 63 | 50 | 3.5 | 7.8 | 0.00 | 0.00 | 0.00 | 56 | 1015.2 |
| 20260505214148 | 63 | 83 | 2.6 | 5.2 | 0.00 | 0.00 | 0.00 | 52 | 1015.2 |
| 20260505213645 | 62 | 105 | 6.1 | 6.1 | 0.00 | 0.00 | 0.00 | 52 | 1015.1 |
| 20260505213142 | 63 | 70 | 4.3 | 7.0 | 0.00 | 0.00 | 0.00 | 53 | 1014.9 |
| 20260505212638 | 64 | 352 | 3.5 | 5.2 | 0.00 | 0.00 | 0.00 | 57 | 1014.9 |
| 20260505212136 | 65 | 34 | 3.5 | 5.2 | 0.00 | 0.00 | 0.00 | 55 | 1014.9 |
| 20260505211632 | 65 | 40 | 3.5 | 6.1 | 0.00 | 0.00 | 0.00 | 56 | 1014.7 |
| 20260505211130 | 65 | 106 | 2.6 | 7.0 | 0.00 | 0.00 | 0.00 | 53 | 1014.9 |
| 20260505210626 | 65 | 122 | 1.7 | 7.8 | 0.00 | 0.00 | 0.00 | 56 | 1014.8 |
| 20260505210123 | 64 | 57 | 3.5 | 5.2 | 0.00 | 0.00 | 0.00 | 57 | 1014.8 |
| 20260505205621 | 64 | 77 | 3.5 | 7.0 | 0.00 | 0.00 | 0.00 | 56 | 1014.5 |
| 20260505205119 | 65 | 25 | 6.1 | 7.8 | 0.00 | 0.00 | 0.00 | 55 | 1014.5 |
| 20260505204615 | 64 | 81 | 2.6 | 7.0 | 0.00 | 0.00 | 0.00 | 54 | 1014.7 |
| 20260505204113 | 63 | 78 | 2.6 | 4.3 | 0.00 | 0.00 | 0.00 | 57 | 1014.6 |
| 20260505203609 | 62 | 61 | 1.7 | 8.7 | 0.00 | 0.00 | 0.00 | 56 | 1014.4 |
| 20260505203107 | 62 | 72 | 1.7 | 11.3 | 0.00 | 0.00 | 0.00 | 57 | 1014.5 |
| 20260505202602 | 62 | 72 | 1.7 | 5.2 | 0.00 | 0.00 | 0.00 | 58 | 1014.4 |
| 20260505202058 | 62 | 45 | 3.5 | 5.2 | 0.00 | 0.00 | 0.00 | 58 | 1014.4 |
| 20260505201555 | 62 | 74 | 5.2 | 6.1 | 0.00 | 0.00 | 0.00 | 56 | 1014.6 |
| 20260505201053 | 61 | 66 | 2.6 | 5.2 | 0.00 | 0.00 | 0.00 | 58 | 1014.3 |
| 20260505200550 | 61 | 45 | 5.2 | 7.0 | 0.00 | 0.00 | 0.00 | 62 | 1014.1 |
| 20260505200047 | 60 | 12 | 3.5 | 6.1 | 0.00 | 0.00 | 0.00 | 61 | 1014.1 |
| 20260505195543 | 60 | 15 | 1.7 | 5.2 | 0.00 | 0.00 | 0.00 | 59 | 1014.1 |
| 20260505195041 | 60 | 79 | 6.1 | 7.0 | 0.00 | 0.00 | 0.00 | 63 | 1014.3 |
| 20260505194538 | 60 | 44 | 4.3 | 5.2 | 0.00 | 0.00 | 0.00 | 64 | 1014.3 |
| 20260505194033 | 58 | 81 | 4.3 | 7.8 | 0.00 | 0.00 | 0.00 | 67 | 1014.1 |
| 20260505193531 | 58 | 61 | 3.5 | 6.1 | 0.00 | 0.00 | 0.00 | 67 | 1014.2 |
| 20260505193028 | 58 | 32 | 5.2 | 7.0 | 0.00 | 0.00 | 0.00 | 68 | 1014.1 |
| 20260505192526 | 59 | 32 | 1.7 | 7.0 | 0.00 | 0.00 | 0.00 | 68 | 1014.1 |
| 20260505192024 | 58 | 29 | 5.2 | 7.0 | 0.00 | 0.00 | 0.00 | 66 | 1014.0 |
| 20260505191522 | 58 | 35 | 4.3 | 7.0 | 0.00 | 0.00 | 0.00 | 67 | 1014.2 |
| 20260505191020 | 58 | 56 | 3.5 | 7.0 | 0.00 | 0.00 | 0.00 | 68 | 1014.2 |
| 20260505190514 | 58 | 18 | 1.7 | 5.2 | 0.00 | 0.00 | 0.00 | 68 | 1014.3 |
| 20260505190010 | 57 | 37 | 3.5 | 5.2 | 0.00 | 0.00 | 0.00 | 72 | 1014.1 |
| 20260505185507 | 57 | 60 | 2.6 | 5.2 | 0.00 | 0.00 | 0.00 | 74 | 1014.3 |
| 20260505185003 | 58 | 43 | 5.2 | 7.0 | 0.00 | 0.00 | 0.00 | 73 | 1014.1 |
| 20260505184500 | 58 | 31 | 3.5 | 5.2 | 0.00 | 0.00 | 0.00 | 71 | 1014.1 |
| 20260505183957 | 58 | 35 | 3.5 | 6.1 | 0.00 | 0.00 | 0.00 | 72 | 1013.9 |
| 20260505183454 | 57 | 9 | 3.5 | 7.8 | 0.00 | 0.00 | 0.00 | 73 | 1013.9 |
| 20260505182950 | 56 | 65 | 1.7 | 5.2 | 0.00 | 0.00 | 0.00 | 72 | 1014.0 |
| 20260505182448 | 56 | 39 | 5.2 | 5.2 | 0.00 | 0.00 | 0.00 | 76 | 1014.1 |
| 20260505181944 | 57 | 48 | 5.2 | 6.1 | 0.00 | 0.00 | 0.00 | 75 | 1014.2 |
| 20260505181441 | 57 | 48 | 3.5 | 6.1 | 0.00 | 0.00 | 0.00 | 72 | 1013.9 |
| 20260505180938 | 57 | 5 | 3.5 | 6.1 | 0.00 | 0.00 | 0.00 | 74 | 1014.0 |
| 20260505180434 | 56 | 23 | 3.5 | 5.2 | 0.00 | 0.00 | 0.00 | 77 | 1014.0 |
| 20260505175931 | 56 | 65 | 3.5 | 5.2 | 0.00 | 0.00 | 0.00 | 77 | 1014.0 |
| 20260505175427 | 55 | 84 | 1.7 | 4.3 | 0.00 | 0.00 | 0.00 | 77 | 1013.8 |
| 20260505174924 | 55 | 42 | 5.2 | 6.1 | 0.00 | 0.00 | 0.00 | 81 | 1013.8 |
| 20260505174422 | 54 | 59 | 3.5 | 5.2 | 0.00 | 0.00 | 0.00 | 83 | 1013.9 |
| 20260505173917 | 55 | 22 | 1.7 | 5.2 | 0.00 | 0.00 | 0.00 | 82 | 1013.7 |
| 20260505173414 | 54 | 40 | 3.5 | 4.3 | 0.00 | 0.00 | 0.00 | 79 | 1013.6 |
| 20260505172911 | 54 | 36 | 2.6 | 5.2 | 0.00 | 0.00 | 0.00 | 81 | 1013.7 |
| 20260505172409 | 54 | 84 | 3.5 | 4.3 | 0.00 | 0.00 | 0.00 | 80 | 1013.7 |
| 20260505171908 | 54 | 96 | 4.3 | 4.3 | 0.00 | 0.00 | 0.00 | 80 | 1013.7 |
| 20260505171406 | 54 | 39 | 1.7 | 3.5 | 0.00 | 0.00 | 0.00 | 82 | 1013.5 |
| 20260505170902 | 53 | 46 | 1.7 | 6.1 | 0.00 | 0.00 | 0.00 | 84 | 1013.5 |
| 20260505170359 | 52 | 126 | 1.7 | 2.6 | 0.00 | 0.00 | 0.00 | 87 | 1013.7 |
| 20260505165854 | 52 | 56 | 1.7 | 3.5 | 0.00 | 0.00 | 0.00 | 87 | 1013.6 |
| 20260505165350 | 52 | 131 | 2.6 | 2.6 | 0.00 | 0.00 | 0.00 | 88 | 1013.5 |
| 20260505164846 | 52 | 120 | 2.6 | 3.5 | 0.00 | 0.00 | 0.00 | 85 | 1013.5 |
| 20260505164342 | 53 | 111 | 2.6 | 2.6 | 0.00 | 0.00 | 0.00 | 87 | 1013.5 |
| 20260505163841 | 53 | 100 | 3.5 | 3.5 | 0.00 | 0.00 | 0.00 | 87 | 1013.5 |
| 20260505163339 | 52 | 65 | 2.6 | 3.5 | 0.00 | 0.00 | 0.00 | 87 | 1013.6 |
| 20260505162838 | 51 | 86 | 3.5 | 4.3 | 0.00 | 0.00 | 0.00 | 89 | 1013.3 |
| 20260505162333 | 50 | 38 | 1.7 | 3.5 | 0.00 | 0.00 | 0.00 | 91 | 1013.4 |
| 20260505161831 | 50 | 114 | 1.7 | 2.6 | 0.00 | 0.00 | 0.00 | 92 | 1013.6 |
| 20260505161328 | 49 | 95 | 1.7 | 3.5 | 0.00 | 0.00 | 0.00 | 91 | 1013.3 |
| 20260505160825 | 49 | 91 | 2.6 | 2.6 | 0.00 | 0.00 | 0.00 | 92 | 1013.0 |
| 20260505160323 | 49 | 97 | 2.6 | 2.6 | 0.00 | 0.00 | 0.00 | 93 | 1012.9 |
| 20260505153302 | 47 | 83 | 2.6 | 3.5 | 0.00 | 0.00 | 0.00 | 97 | 1012.9 |
| 20260505152759 | 47 | 99 | 2.6 | 3.5 | 0.00 | 0.00 | 0.00 | 97 | 1012.9 |
| 20260505152256 | 47 | 103 | 3.5 | 3.5 | 0.00 | 0.00 | 0.00 | 97 | 1012.9 |
| 20260505151755 | 47 | 99 | 3.5 | 4.3 | 0.00 | 0.00 | 0.00 | 97 | 1012.9 |
| 20260505151253 | 47 | 95 | 3.5 | 3.5 | 0.00 | 0.00 | 0.00 | 97 | 1012.9 |
| 20260505150750 | 47 | 115 | 3.5 | 4.3 | 0.00 | 0.00 | 0.00 | 98 | 1012.8 |
| 20260505150247 | 47 | 114 | 3.5 | 4.3 | 0.00 | 0.00 | 0.00 | 98 | 1012.9 |
| 20260505140217 | 44 | 108 | 2.6 | 3.5 | 0.00 | 0.00 | 0.00 | 98 | 1012.5 |
| 20260505130141 | 44 | 95 | 3.5 | 4.3 | 0.00 | 0.00 | 0.00 | 98 | 1011.8 |
| 20260505124630 | 44 | 96 | 3.5 | 4.3 | 0.00 | 0.00 | 0.00 | 98 | 1011.6 |
| 20260505124127 | 44 | 112 | 3.5 | 3.5 | 0.00 | 0.00 | 0.00 | 98 | 1011.4 |
| 20260505123623 | 44 | 77 | 4.3 | 4.3 | 0.00 | 0.00 | 0.00 | 98 | 1011.6 |
| 20260505123120 | 44 | 94 | 2.6 | 3.5 | 0.00 | 0.00 | 0.00 | 98 | 1011.6 |
| 20260505122617 | 44 | 91 | 3.5 | 4.3 | 0.00 | 0.00 | 0.00 | 98 | 1011.5 |
| 20260505122114 | 44 | 76 | 2.6 | 4.3 | 0.00 | 0.00 | 0.00 | 98 | 1011.5 |
| 20260505121610 | 44 | 92 | 2.6 | 3.5 | 0.00 | 0.00 | 0.00 | 98 | 1011.6 |
| 20260505121107 | 44 | 114 | 3.5 | 3.5 | 0.00 | 0.00 | 0.00 | 98 | 1011.7 |
| 20260505120603 | 44 | 94 | 4.3 | 4.3 | 0.00 | 0.00 | 0.00 | 98 | 1011.6 |
| 20260505120059 | 44 | 96 | 3.5 | 4.3 | 0.00 | 0.00 | 0.00 | 98 | 1011.6 |
| 20260505115554 | 44 | 104 | 2.6 | 2.6 | 0.00 | 0.00 | 0.00 | 97 | 1011.8 |
| 20260505115051 | 44 | 104 | 2.6 | 3.5 | 0.00 | 0.00 | 0.00 | 97 | 1011.6 |
| 20260505114548 | 44 | 81 | 3.5 | 3.5 | 0.00 | 0.00 | 0.00 | 98 | 1011.7 |
| 20260505114044 | 44 | 91 | 2.6 | 3.5 | 0.00 | 0.00 | 0.00 | 97 | 1012.0 |
| 20260505113541 | 44 | 91 | 3.5 | 3.5 | 0.00 | 0.00 | 0.00 | 97 | 1011.9 |
| 20260505113038 | 44 | 95 | 3.5 | 3.5 | 0.00 | 0.00 | 0.00 | 97 | 1011.9 |
| 20260505112534 | 44 | 93 | 3.5 | 3.5 | 0.00 | 0.00 | 0.00 | 97 | 1011.8 |
| 20260505112033 | 44 | 89 | 3.5 | 4.3 | 0.00 | 0.00 | 0.00 | 97 | 1012.0 |
| 20260505111531 | 44 | 87 | 3.5 | 3.5 | 0.00 | 0.00 | 0.00 | 97 | 1011.9 |
| 20260505111028 | 44 | 93 | 3.5 | 3.5 | 0.00 | 0.00 | 0.00 | 97 | 1012.0 |
| 20260505110525 | 44 | 87 | 3.5 | 4.3 | 0.00 | 0.00 | 0.00 | 97 | 1011.9 |
| 20260505101957 | 44 | 77 | 2.6 | 3.5 | 0.00 | 0.00 | 0.00 | 97 | 1012.1 |
| 20260505101455 | 44 | 87 | 3.5 | 4.3 | 0.00 | 0.00 | 0.00 | 97 | 1012.2 |
| 20260505100951 | 44 | 89 | 2.6 | 3.5 | 0.00 | 0.00 | 0.00 | 97 | 1012.1 |
| 20260505100449 | 44 | 94 | 3.5 | 4.3 | 0.00 | 0.00 | 0.00 | 97 | 1012.3 |
| 20260505095945 | 45 | 87 | 3.5 | 4.3 | 0.00 | 0.00 | 0.00 | 96 | 1012.4 |
| 20260505095442 | 45 | 122 | 2.6 | 3.5 | 0.00 | 0.00 | 0.00 | 96 | 1012.4 |
| 20260505094938 | 45 | 94 | 3.5 | 4.3 | 0.00 | 0.00 | 0.00 | 96 | 1012.3 |
| 20260505094435 | 45 | 95 | 3.5 | 3.5 | 0.00 | 0.00 | 0.00 | 96 | 1012.2 |
| 20260505093931 | 45 | 115 | 3.5 | 3.5 | 0.00 | 0.00 | 0.00 | 96 | 1012.3 |
| 20260505093427 | 45 | 92 | 3.5 | 3.5 | 0.00 | 0.00 | 0.00 | 96 | 1012.3 |
| 20260505092925 | 45 | 79 | 4.3 | 5.2 | 0.00 | 0.00 | 0.00 | 96 | 1012.3 |
| 20260505092423 | 45 | 86 | 2.6 | 3.5 | 0.00 | 0.00 | 0.00 | 96 | 1012.2 |
| 20260505091920 | 45 | 81 | 2.6 | 3.5 | 0.00 | 0.00 | 0.00 | 96 | 1012.1 |
| 20260505091417 | 46 | 79 | 2.6 | 3.5 | 0.00 | 0.00 | 0.00 | 96 | 1012.3 |
| 20260505090915 | 46 | 81 | 3.5 | 4.3 | 0.00 | 0.00 | 0.00 | 96 | 1012.2 |
| 20260505090413 | 46 | 82 | 3.5 | 3.5 | 0.00 | 0.00 | 0.00 | 96 | 1012.4 |
| 20260505085910 | 46 | 86 | 3.5 | 4.3 | 0.00 | 0.00 | 0.00 | 96 | 1012.2 |
| 20260505085408 | 46 | 76 | 2.6 | 4.3 | 0.00 | 0.00 | 0.00 | 96 | 1012.3 |
| 20260505084906 | 46 | 72 | 4.3 | 4.3 | 0.00 | 0.00 | 0.00 | 96 | 1012.4 |
| 20260505084404 | 46 | 70 | 4.3 | 4.3 | 0.00 | 0.00 | 0.00 | 96 | 1012.3 |
| 20260505083901 | 46 | 78 | 3.5 | 4.3 | 0.00 | 0.00 | 0.00 | 96 | 1012.4 |
| 20260505083359 | 46 | 83 | 3.5 | 4.3 | 0.00 | 0.00 | 0.00 | 95 | 1012.4 |
| 20260505082855 | 46 | 106 | 2.6 | 3.5 | 0.00 | 0.00 | 0.00 | 95 | 1012.4 |
| 20260505082351 | 47 | 83 | 3.5 | 4.3 | 0.00 | 0.00 | 0.00 | 95 | 1012.5 |
| 20260505081848 | 47 | 91 | 4.3 | 4.3 | 0.00 | 0.00 | 0.00 | 95 | 1012.2 |
| 20260505081344 | 47 | 95 | 3.5 | 4.3 | 0.00 | 0.00 | 0.00 | 95 | 1012.4 |
| 20260505080841 | 47 | 85 | 3.5 | 4.3 | 0.00 | 0.00 | 0.00 | 95 | 1012.4 |
| 20260505080337 | 47 | 115 | 3.5 | 3.5 | 0.00 | 0.00 | 0.00 | 95 | 1012.4 |
| 20260505075833 | 47 | 89 | 2.6 | 3.5 | 0.00 | 0.00 | 0.00 | 95 | 1012.3 |
| 20260505075330 | 47 | 92 | 3.5 | 3.5 | 0.00 | 0.00 | 0.00 | 95 | 1012.4 |
| 20260505074827 | 47 | 80 | 3.5 | 3.5 | 0.00 | 0.00 | 0.00 | 95 | 1012.3 |
| 20260505074324 | 47 | 76 | 3.5 | 3.5 | 0.00 | 0.00 | 0.00 | 94 | 1012.4 |
| 20260505073822 | 47 | 122 | 2.6 | 3.5 | 0.00 | 0.00 | 0.00 | 94 | 1012.1 |
| 20260505073320 | 47 | 100 | 2.6 | 4.3 | 0.00 | 0.00 | 0.00 | 94 | 1012.2 |
| 20260505072816 | 47 | 100 | 3.5 | 3.5 | 0.00 | 0.00 | 0.00 | 94 | 1012.3 |
| 20260505072312 | 47 | 108 | 2.6 | 3.5 | 0.00 | 0.00 | 0.00 | 94 | 1012.1 |
| 20260505071808 | 48 | 87 | 2.6 | 4.3 | 0.00 | 0.00 | 0.00 | 93 | 1012.3 |
| 20260505071305 | 48 | 79 | 3.5 | 3.5 | 0.00 | 0.00 | 0.00 | 93 | 1012.4 |
| 20260505070803 | 48 | 73 | 3.5 | 3.5 | 0.00 | 0.00 | 0.00 | 93 | 1012.3 |
| 20260505070259 | 48 | 77 | 2.6 | 4.3 | 0.00 | 0.00 | 0.00 | 93 | 1012.4 |
| 20260505065754 | 48 | 80 | 3.5 | 4.3 | 0.00 | 0.00 | 0.00 | 93 | 1012.4 |
| 20260505065252 | 48 | 88 | 3.5 | 3.5 | 0.00 | 0.00 | 0.00 | 93 | 1012.5 |
| 20260505064749 | 49 | 78 | 3.5 | 4.3 | 0.00 | 0.00 | 0.00 | 92 | 1012.3 |
| 20260505064246 | 49 | 86 | 3.5 | 4.3 | 0.00 | 0.00 | 0.00 | 92 | 1012.4 |
| 20260505063744 | 49 | 94 | 2.6 | 4.3 | 0.00 | 0.00 | 0.00 | 92 | 1012.5 |
| 20260505063240 | 49 | 96 | 2.6 | 4.3 | 0.00 | 0.00 | 0.00 | 92 | 1012.5 |
| 20260505062736 | 49 | 89 | 2.6 | 3.5 | 0.00 | 0.00 | 0.00 | 91 | 1012.6 |
| 20260505062234 | 49 | 83 | 2.6 | 3.5 | 0.00 | 0.00 | 0.00 | 91 | 1012.4 |
| 20260505061731 | 50 | 104 | 3.5 | 4.3 | 0.00 | 0.00 | 0.00 | 92 | 1012.5 |
| 20260505061229 | 50 | 70 | 2.6 | 3.5 | 0.00 | 0.00 | 0.00 | 91 | 1012.5 |
| 20260505060726 | 50 | 72 | 2.6 | 3.5 | 0.00 | 0.00 | 0.00 | 91 | 1012.7 |
| 20260505060223 | 50 | 79 | 3.5 | 4.3 | 0.00 | 0.00 | 0.00 | 91 | 1012.7 |
| 20260505055718 | 50 | 69 | 3.5 | 4.3 | 0.00 | 0.00 | 0.00 | 91 | 1012.7 |
| 20260505055215 | 51 | 81 | 2.6 | 4.3 | 0.00 | 0.00 | 0.00 | 90 | 1012.6 |
| 20260505054712 | 51 | 89 | 2.6 | 3.5 | 0.00 | 0.00 | 0.00 | 90 | 1012.6 |
| 20260505054210 | 51 | 130 | 2.6 | 3.5 | 0.00 | 0.00 | 0.00 | 89 | 1012.5 |
| 20260505053708 | 51 | 108 | 2.6 | 4.3 | 0.00 | 0.00 | 0.00 | 89 | 1012.5 |
| 20260505053204 | 52 | 88 | 2.6 | 2.6 | 0.00 | 0.00 | 0.00 | 89 | 1012.5 |
| 20260505052701 | 52 | 95 | 3.5 | 3.5 | 0.00 | 0.00 | 0.00 | 89 | 1012.4 |
| 20260505052158 | 52 | 89 | 3.5 | 4.3 | 0.00 | 0.00 | 0.00 | 89 | 1012.3 |
| 20260505051655 | 52 | 81 | 3.5 | 3.5 | 0.00 | 0.00 | 0.00 | 88 | 1012.5 |
| 20260505051153 | 52 | 77 | 2.6 | 3.5 | 0.00 | 0.00 | 0.00 | 88 | 1012.5 |
| 20260505050651 | 53 | 135 | 2.6 | 3.5 | 0.00 | 0.00 | 0.00 | 88 | 1012.4 |
| 20260505050149 | 53 | 96 | 3.5 | 3.5 | 0.00 | 0.00 | 0.00 | 87 | 1012.6 |